Time;durP1;ratioP1;P1;durP2;ratioP2;P2;SDS_P1;SDS_P2;PMS_P1;PMS_P2;Temp;Humidity;BMP_temperature;BMP_pressure;BME280_temperature;BME280_humidity;BME280_pressure;Samples;Min_cycle;Max_cycle;Signal;HPM_P1;HPM_P2
2023/04/19 00:02:35;;;;;;;;;;;;;;;20.46;64.71;102056.38;2193088;79;52459;-77
2023/04/19 00:05:37;;;;;;;;;;;;;;;20.43;64.83;102045.95;2216992;79;51656;-76
2023/04/19 00:08:38;;;;;;;;;;;;;;;20.39;64.84;102041.89;2237640;78;50861;-76
2023/04/19 00:11:40;;;;;;;;;;;;;;;20.36;65.04;102036.84;2217039;79;51539;-76
2023/04/19 00:14:42;;;;;;;;;;;;;;;20.32;65.30;102037.67;2225580;78;51633;-76
2023/04/19 00:17:43;;;;;;;;;;;;;;;20.37;65.20;102039.86;2277730;78;51553;-77
2023/04/19 00:20:45;;;;;;;;;;;;;;;20.44;64.85;102035.53;2219727;79;51425;-76
2023/04/19 00:23:47;;;;;;;;;;;;;;;20.47;64.77;102032.51;2211343;79;51513;-77
2023/04/19 00:26:48;;;;;;;;;;;;;;;20.44;64.75;102035.53;2214022;78;51585;-77
2023/04/19 00:29:50;;;;;;;;;;;;;;;20.43;64.67;102033.34;2209875;79;50331;-75
2023/04/19 00:32:52;;;;;;;;;;;;;;;20.42;64.86;102033.49;2207172;80;50380;-75
2023/04/19 00:35:53;;;;;;;;;;;;;;;20.39;64.75;102024.41;2206759;80;51405;-76
2023/04/19 00:38:55;;;;;;;;;;;;;;;20.37;65.07;102026.41;2183564;80;52304;-76
2023/04/19 00:41:56;;;;;;;;;;;;;;;20.33;65.02;102038.00;2210310;79;50367;-75
2023/04/19 00:44:58;;;;;;;;;;;;;;;20.30;65.28;102036.16;2206714;80;50088;-75
2023/04/19 00:48:00;;;;;;;;;;;;;;;20.30;65.23;102029.43;2229661;80;50630;-74
2023/04/19 00:51:02;;;;;;;;;;;;;;;20.36;65.08;102028.27;2206771;80;52713;-75
2023/04/19 00:54:05;;;;;;;;;;;;;;;20.43;64.91;102027.97;2229402;80;50808;-74
2023/04/19 00:57:07;;;;;;;;;;;;;;;20.49;64.59;102034.54;2207111;80;50781;-76
2023/04/19 01:00:08;;;;;;;;;;;;;;;20.48;64.54;102028.83;2206949;80;50328;-76
2023/04/19 01:03:12;;;;;;;;;;;;;;;20.47;64.54;102035.70;2207050;80;51689;-75
2023/04/19 01:06:14;;;;;;;;;;;;;;;20.44;64.52;102037.70;2207091;80;50329;-75
2023/04/19 01:09:15;;;;;;;;;;;;;;;20.43;64.52;102032.51;2229655;80;51445;-75
2023/04/19 01:12:17;;;;;;;;;;;;;;;20.40;64.61;102035.02;2220079;78;51402;-76
2023/04/19 01:15:19;;;;;;;;;;;;;;;20.37;64.67;102041.20;2229259;79;52682;-76
2023/04/19 01:18:21;;;;;;;;;;;;;;;20.33;64.75;102036.66;2206919;80;50734;-75
2023/04/19 01:21:23;;;;;;;;;;;;;;;20.33;64.85;102035.83;2229697;80;50444;-75
2023/04/19 01:24:25;;;;;;;;;;;;;;;20.36;64.83;102036.84;2206763;79;50143;-75
2023/04/19 01:27:26;;;;;;;;;;;;;;;20.42;64.61;102032.15;2184793;78;51204;-75
2023/04/19 01:30:28;;;;;;;;;;;;;;;20.42;64.46;102033.02;2265648;77;50237;-76
2023/04/19 01:33:29;;;;;;;;;;;;;;;20.42;64.41;102035.70;2263902;78;50319;-75
2023/04/19 01:36:31;;;;;;;;;;;;;;;20.40;64.44;102032.33;2265436;77;50685;-75
2023/04/19 01:39:32;;;;;;;;;;;;;;;20.39;64.43;102029.79;2265670;77;51660;-75
2023/04/19 01:42:34;;;;;;;;;;;;;;;20.36;64.33;102024.74;2263870;78;51528;-76
2023/04/19 01:45:36;;;;;;;;;;;;;;;20.34;64.40;102029.43;2265643;77;51428;-76
2023/04/19 01:48:37;;;;;;;;;;;;;;;20.29;64.50;102027.73;2263961;78;51614;-75
2023/04/19 01:51:39;;;;;;;;;;;;;;;20.22;65.05;102032.41;2257579;78;51672;-75
2023/04/19 01:54:40;;;;;;;;;;;;;;;20.23;65.01;102021.16;2222023;78;51447;-76
2023/04/19 01:57:42;;;;;;;;;;;;;;;20.27;64.97;102016.29;2250595;78;51542;-75
2023/04/19 02:00:44;;;;;;;;;;;;;;;20.35;64.79;102007.78;2264186;78;50221;-75
2023/04/19 02:03:46;;;;;;;;;;;;;;;20.43;64.48;102008.31;2225447;79;51723;-76
2023/04/19 02:06:48;;;;;;;;;;;;;;;20.43;64.30;102009.15;2230044;79;51522;-74
2023/04/19 02:09:50;;;;;;;;;;;;;;;20.44;64.27;102014.02;2230588;80;51397;-77
2023/04/19 02:12:52;;;;;;;;;;;;;;;20.40;64.27;102008.64;2232359;80;50776;-77
2023/04/19 02:15:54;;;;;;;;;;;;;;;20.40;64.22;102009.98;2233047;80;50782;-76
2023/04/19 02:18:55;;;;;;;;;;;;;;;20.36;64.29;102008.11;2230855;80;50052;-75
2023/04/19 02:21:57;;;;;;;;;;;;;;;20.33;64.34;102003.05;2231385;78;49973;-76
2023/04/19 02:24:58;;;;;;;;;;;;;;;20.31;64.39;102004.22;2233759;80;50525;-76
2023/04/19 02:28:00;;;;;;;;;;;;;;;20.29;64.58;102012.44;2234354;79;51403;-75
2023/04/19 02:31:03;;;;;;;;;;;;;;;20.30;64.63;102008.77;2230944;80;50645;-74
2023/04/19 02:34:05;;;;;;;;;;;;;;;20.35;64.55;102001.06;2254681;78;51388;-76
2023/04/19 02:37:06;;;;;;;;;;;;;;;20.45;64.29;102003.63;2244777;78;51510;-74
2023/04/19 02:40:08;;;;;;;;;;;;;;;20.51;64.15;102000.78;2245267;78;49596;-76
2023/04/19 02:43:10;;;;;;;;;;;;;;;20.56;63.92;101991.24;2244521;78;50497;-78
2023/04/19 02:46:12;;;;;;;;;;;;;;;20.64;63.75;101985.05;2267250;78;50561;-75
2023/04/19 02:49:13;;;;;;;;;;;;;;;20.73;63.52;101995.31;2244209;78;51577;-77
2023/04/19 02:52:15;;;;;;;;;;;;;;;20.80;63.24;101989.62;2243495;78;52457;-77
2023/04/19 02:55:16;;;;;;;;;;;;;;;20.87;63.11;101990.64;2244116;78;51429;-75
2023/04/19 02:58:18;;;;;;;;;;;;;;;20.95;62.93;101977.20;2243692;78;50231;-77
2023/04/19 03:01:20;;;;;;;;;;;;;;;21.02;62.70;101980.91;2267148;78;50269;-77
2023/04/19 03:04:21;;;;;;;;;;;;;;;21.10;62.53;101974.19;2216925;78;51108;-77
2023/04/19 03:07:23;;;;;;;;;;;;;;;21.16;62.32;101965.94;2289457;77;50248;-77
2023/04/19 03:10:25;;;;;;;;;;;;;;;21.15;62.28;101960.74;2252943;78;50284;-77
2023/04/19 03:13:26;;;;;;;;;;;;;;;21.14;62.31;101965.77;2257121;78;50539;-79
2023/04/19 03:16:29;;;;;;;;;;;;;;;21.08;62.41;101966.77;2232016;79;51154;-76
2023/04/19 03:19:30;;;;;;;;;;;;;;;21.04;62.48;101964.58;2256864;78;50692;-76
2023/04/19 03:22:32;;;;;;;;;;;;;;;20.99;62.58;101967.80;2289209;77;52384;-78
2023/04/19 03:25:33;;;;;;;;;;;;;;;20.93;62.71;101961.72;2288886;77;50454;-77
2023/04/19 03:28:35;;;;;;;;;;;;;;;20.87;62.78;101962.39;2215905;78;50992;-76
2023/04/19 03:31:37;;;;;;;;;;;;;;;20.79;62.88;101953.81;2288545;77;50675;-76
2023/04/19 03:34:38;;;;;;;;;;;;;;;20.75;62.96;101950.27;2218606;79;50682;-76
2023/04/19 03:37:40;;;;;;;;;;;;;;;20.69;63.19;101949.09;2193842;78;51095;-77
2023/04/19 03:40:42;;;;;;;;;;;;;;;20.63;63.28;101942.52;2238062;79;51700;-76
2023/04/19 03:43:43;;;;;;;;;;;;;;;20.58;63.38;101937.31;2254377;78;51569;-77
2023/04/19 03:46:47;;;;;;;;;;;;;;;20.50;63.49;101935.89;2232933;78;51318;-76
2023/04/19 03:49:48;;;;;;;;;;;;;;;20.47;63.59;101934.37;2265376;77;22313;-77
2023/04/19 03:52:50;;;;;;;;;;;;;;;20.44;63.65;101938.73;2209181;78;51061;-79
2023/04/19 03:55:51;;;;;;;;;;;;;;;20.37;63.72;101931.84;2265341;78;49885;-78
2023/04/19 03:58:53;;;;;;;;;;;;;;;20.33;63.98;101933.67;2265450;78;50389;-77
2023/04/19 04:01:54;;;;;;;;;;;;;;;20.30;64.10;101932.66;2267575;78;50731;-78
2023/04/19 04:04:56;;;;;;;;;;;;;;;20.32;64.08;101937.34;2209079;79;51211;-77
2023/04/19 04:07:58;;;;;;;;;;;;;;;20.39;64.03;101933.01;2212521;79;50289;-76
2023/04/19 04:10:59;;;;;;;;;;;;;;;20.41;63.88;101929.66;2244089;79;50398;-73
2023/04/19 04:14:01;;;;;;;;;;;;;;;20.39;63.73;101933.01;2212123;79;50263;-75
2023/04/19 04:17:02;;;;;;;;;;;;;;;20.36;63.38;101936.87;2188919;79;49515;-74
2023/04/19 04:20:04;;;;;;;;;;;;;;;20.28;63.81;101930.63;2244023;79;50649;-72
2023/04/19 04:23:06;;;;;;;;;;;;;;;20.31;63.52;101932.98;2212244;79;51476;-72
2023/04/19 04:26:08;;;;;;;;;;;;;;;20.23;63.56;101917.67;2212134;79;51578;-73
2023/04/19 04:29:10;;;;;;;;;;;;;;;20.16;63.70;101918.81;2188791;79;49430;-71
2023/04/19 04:32:13;;;;;;;;;;;;;;;20.13;63.76;101917.80;2212741;78;49917;-72
2023/04/19 04:35:16;;;;;;;;;;;;;;;20.15;63.75;101914.97;2237999;78;51520;-73
2023/04/19 04:38:17;;;;;;;;;;;;;;;20.18;63.50;101916.81;2281503;78;50291;-73
2023/04/19 04:41:19;;;;;;;;;;;;;;;20.28;63.29;101914.51;2224863;78;51238;-73
2023/04/19 04:44:21;;;;;;;;;;;;;;;20.35;62.92;101911.52;2248425;78;50332;-72
2023/04/19 04:47:23;;;;;;;;;;;;;;;20.38;62.82;101906.64;2281361;78;50249;-71
2023/04/19 04:50:24;;;;;;;;;;;;;;;20.33;63.06;101910.32;2281333;78;51535;-73
2023/04/19 04:53:26;;;;;;;;;;;;;;;20.34;63.03;101907.13;2224709;78;49607;-73
2023/04/19 04:56:29;;;;;;;;;;;;;;;20.30;63.07;101906.62;2281185;78;50690;-73
2023/04/19 04:59:31;;;;;;;;;;;;;;;20.30;62.96;101908.47;2281402;78;51564;-72
2023/04/19 05:02:33;;;;;;;;;;;;;;;20.23;63.00;101898.36;2263174;78;51564;-72
2023/04/19 05:05:34;;;;;;;;;;;;;;;20.20;62.97;101902.72;2211794;79;52418;-72
2023/04/19 05:08:36;;;;;;;;;;;;;;;20.18;63.19;101904.72;2244128;79;50400;-72
2023/04/19 05:11:37;;;;;;;;;;;;;;;20.20;63.32;101899.20;2215441;78;50289;-72
2023/04/19 05:14:39;;;;;;;;;;;;;;;20.28;63.25;101899.73;2242030;77;51596;-72
2023/04/19 05:17:41;;;;;;;;;;;;;;;20.34;62.98;101890.99;2222187;78;52703;-72
2023/04/19 05:20:45;;;;;;;;;;;;;;;20.32;62.96;101893.00;2253538;78;50659;-72
2023/04/19 05:23:46;;;;;;;;;;;;;;;20.34;62.88;101890.48;2251030;78;22973;-73
2023/04/19 05:26:48;;;;;;;;;;;;;;;20.42;62.71;101877.09;2252507;78;50766;-74
2023/04/19 05:29:50;;;;;;;;;;;;;;;20.45;61.82;101885.33;2271600;78;51485;-73
2023/04/19 05:32:51;;;;;;;;;;;;;;;20.32;58.25;101876.39;2235280;78;50925;-72
2023/04/19 05:35:53;;;;;;;;;;;;;;;20.20;57.54;101883.91;2263502;77;51697;-72
2023/04/19 05:38:55;;;;;;;;;;;;;;;20.21;55.52;101873.99;2248601;78;51494;-72
2023/04/19 05:41:56;;;;;;;;;;;;;;;20.32;56.08;101870.15;2248242;78;53395;-72
2023/04/19 05:44:58;;;;;;;;;;;;;;;20.38;56.56;101869.51;2221589;79;52342;-72
2023/04/19 05:47:59;;;;;;;;;;;;;;;20.52;56.98;101871.53;2244892;78;51410;-72
2023/04/19 05:51:01;;;;;;;;;;;;;;;20.65;57.54;101871.94;2212616;79;50260;-72
2023/04/19 05:54:02;;;;;;;;;;;;;;;20.79;57.77;101871.77;2212247;79;50201;-72
2023/04/19 05:57:04;;;;;;;;;;;;;;;20.94;57.83;101875.97;2195377;78;52354;-72
2023/04/19 06:00:08;;;;;;;;;;;;;;;20.99;57.99;101870.92;2260323;78;50195;-71
2023/04/19 06:03:10;;;;;;;;;;;;;;;21.02;58.05;101872.44;2266476;78;50395;-72
2023/04/19 06:06:12;;;;;;;;;;;;;;;21.03;58.21;101873.59;2212617;79;51528;-72
2023/04/19 06:09:14;;;;;;;;;;;;;;;21.04;58.33;101865.88;2188847;79;50119;-72
2023/04/19 06:12:15;;;;;;;;;;;;;;;21.01;58.61;101873.43;2244360;79;50316;-72
2023/04/19 06:15:17;;;;;;;;;;;;;;;20.97;58.83;101867.56;2212385;79;50352;-72
2023/04/19 06:18:18;;;;;;;;;;;;;;;20.92;59.10;101860.50;2221311;78;50478;-72
2023/04/19 06:21:20;;;;;;;;;;;;;;;20.90;59.21;101867.05;2209305;78;52532;-71
2023/04/19 06:24:21;;;;;;;;;;;;;;;20.88;59.40;101864.52;2265061;78;51466;-71
2023/04/19 06:27:23;;;;;;;;;;;;;;;20.85;59.52;101872.94;2265311;78;51562;-72
2023/04/19 06:30:25;;;;;;;;;;;;;;;20.80;59.68;101868.05;2232998;78;50594;-72
2023/04/19 06:33:26;;;;;;;;;;;;;;;20.79;59.80;101866.38;2243602;78;52481;-72
2023/04/19 06:36:28;;;;;;;;;;;;;;;20.77;59.82;101856.80;2243956;79;51443;-72
2023/04/19 06:39:30;;;;;;;;;;;;;;;20.78;59.85;101857.99;2212561;79;51516;-72
2023/04/19 06:42:31;;;;;;;;;;;;;;;20.77;60.05;101855.45;2212560;79;51409;-72
2023/04/19 06:45:33;;;;;;;;;;;;;;;20.76;60.12;101847.89;2212057;79;51570;-73
2023/04/19 06:48:34;;;;;;;;;;;;;;;20.78;60.16;101851.27;2212456;79;52406;-72
2023/04/19 06:51:37;;;;;;;;;;;;;;;20.75;60.41;101838.64;2243922;79;51480;-71
2023/04/19 06:54:38;;;;;;;;;;;;;;;20.76;60.46;101837.65;2243884;79;50780;-72
2023/04/19 06:57:41;;;;;;;;;;;;;;;20.80;60.71;101825.52;2188661;79;49604;-71
2023/04/19 07:00:43;;;;;;;;;;;;;;;20.82;60.65;101823.52;2212625;79;51512;-71
2023/04/19 07:03:45;;;;;;;;;;;;;;;20.86;60.56;101819.48;2218544;78;51415;-71
2023/04/19 07:06:48;;;;;;;;;;;;;;;20.87;60.66;101814.42;2281305;78;50805;-71
2023/04/19 07:09:49;;;;;;;;;;;;;;;20.91;60.51;101810.88;2248475;78;51040;-71
2023/04/19 07:12:51;;;;;;;;;;;;;;;20.93;60.31;101803.48;2281450;78;51503;-71
2023/04/19 07:15:53;;;;;;;;;;;;;;;20.92;60.16;101807.20;2248178;78;51521;-71
2023/04/19 07:18:54;;;;;;;;;;;;;;;20.91;60.09;101805.50;2248553;78;51620;-70
2023/04/19 07:21:56;;;;;;;;;;;;;;;20.85;60.13;101784.16;2224215;78;51756;-71
2023/04/19 07:24:57;;;;;;;;;;;;;;;20.82;60.15;101792.06;2216236;78;51507;-71
2023/04/19 07:27:59;;;;;;;;;;;;;;;20.83;60.05;101788.38;2280157;78;50740;-74
2023/04/19 07:31:01;;;;;;;;;;;;;;;20.76;60.22;101781.16;2281313;78;50362;-74
2023/04/19 07:34:02;;;;;;;;;;;;;;;20.72;60.37;101779.81;2266743;78;51533;-73
2023/04/19 07:37:04;;;;;;;;;;;;;;;20.69;60.46;101766.20;2240407;79;50279;-73
2023/04/19 07:40:06;;;;;;;;;;;;;;;20.71;60.29;101776.28;2222402;80;51549;-74
2023/04/19 07:43:08;;;;;;;;;;;;;;;20.70;60.24;101776.44;2240567;79;50310;-74
2023/04/19 07:46:10;;;;;;;;;;;;;;;20.66;60.25;101765.20;2178469;80;52354;-74
2023/04/19 07:49:11;;;;;;;;;;;;;;;20.66;60.19;101759.31;2240523;79;51621;-74
2023/04/19 07:52:13;;;;;;;;;;;;;;;20.62;60.12;101763.33;2222304;80;51320;-74
2023/04/19 07:55:14;;;;;;;;;;;;;;;20.59;60.20;101765.02;2240323;79;51428;-73
2023/04/19 07:58:16;;;;;;;;;;;;;;;20.58;60.08;101757.14;2178543;80;51701;-75
2023/04/19 08:01:18;;;;;;;;;;;;;;;20.55;60.09;101768.21;2221412;79;51673;-73
2023/04/19 08:04:21;;;;;;;;;;;;;;;20.55;60.06;101756.98;2202474;80;51402;-74
2023/04/19 08:07:22;;;;;;;;;;;;;;;20.53;60.11;101761.64;2222983;79;22432;-73
2023/04/19 08:10:27;;;;;;;;;;;;;;;20.47;60.15;101750.20;2240156;79;52469;-73
2023/04/19 08:13:29;;;;;;;;;;;;;;;20.47;60.08;101746.17;2222026;80;50308;-72
2023/04/19 08:16:31;;;;;;;;;;;;;;;20.44;60.09;101751.38;2222162;80;51416;-73
2023/04/19 08:19:32;;;;;;;;;;;;;;;20.44;60.05;101733.07;2222302;80;51470;-73
2023/04/19 08:22:34;;;;;;;;;;;;;;;20.43;59.97;101739.47;2216204;79;51662;-72
2023/04/19 08:25:35;;;;;;;;;;;;;;;20.40;60.17;101744.68;2202334;81;51543;-73
2023/04/19 08:28:37;;;;;;;;;;;;;;;20.38;60.32;101742.66;2222381;80;51588;-73
2023/04/19 08:31:39;;;;;;;;;;;;;;;20.39;60.24;101742.14;2243427;78;51481;-73
2023/04/19 08:34:40;;;;;;;;;;;;;;;20.41;60.22;101741.48;2237961;78;52400;-73
2023/04/19 08:37:42;;;;;;;;;;;;;;;20.42;60.10;101731.91;2258969;78;51481;-73
2023/04/19 08:40:48;;;;;;;;;;;;;;;20.42;59.91;101741.80;2238146;78;50693;-74
2023/04/19 08:43:50;;;;;;;;;;;;;;;20.38;59.86;101744.00;2258867;78;51506;-71
2023/04/19 08:46:51;;;;;;;;;;;;;;;20.36;59.89;101735.77;2237859;78;51728;-73
2023/04/19 08:49:53;;;;;;;;;;;;;;;20.34;59.95;101737.78;2258945;78;50568;-73
2023/04/19 08:52:54;;;;;;;;;;;;;;;20.32;59.97;101739.78;2258980;78;50400;-73
2023/04/19 08:56:00;;;;;;;;;;;;;;;20.30;59.96;101725.19;2258665;78;50641;-73
2023/04/19 08:58:59;;;;;;;;;;;;;;;20.30;59.96;101723.02;2259009;77;22796;-74
2023/04/19 09:02:01;;;;;;;;;;;;;;;20.29;60.03;101722.66;2230816;78;51728;-73
2023/04/19 09:05:03;;;;;;;;;;;;;;;20.30;60.16;101709.06;2222187;80;51527;-73
2023/04/19 09:08:23;;;;;;;;;;;;;;;20.32;59.96;101716.46;2202228;80;51450;-74
2023/04/19 09:11:40;;;;;;;;;;;;;;;20.32;59.87;101694.09;2202053;80;51632;-73
2023/04/19 09:14:43;;;;;;;;;;;;;;;20.30;59.82;101688.07;2202245;80;51333;-73
2023/04/19 09:17:45;;;;;;;;;;;;;;;20.27;59.85;101691.07;2222292;80;51495;-73
2023/04/19 09:20:46;;;;;;;;;;;;;;;20.22;59.92;101691.09;2201934;80;49979;-74
2023/04/19 09:23:48;;;;;;;;;;;;;;;20.20;60.00;101678.83;2202012;80;52328;-74
2023/04/19 09:26:56;;;;;;;;;;;;;;;20.19;60.02;101678.48;2202008;80;50745;-74
2023/04/19 09:29:59;;;;;;;;;;;;;;;20.13;60.09;101675.97;2222233;80;51654;-73
2023/04/19 09:33:00;;;;;;;;;;;;;;;20.14;60.17;101678.14;2222405;79;51731;-73
2023/04/19 09:36:02;;;;;;;;;;;;;;;20.14;60.15;101681.70;2178595;80;52748;-73
2023/04/19 09:39:04;;;;;;;;;;;;;;;20.21;59.96;101663.86;2202081;80;52157;-73
2023/04/19 09:42:06;;;;;;;;;;;;;;;20.29;59.65;101661.67;2202014;80;50695;-73
2023/04/19 09:45:08;;;;;;;;;;;;;;;20.31;59.55;101668.23;2222181;80;51432;-72
2023/04/19 09:48:09;;;;;;;;;;;;;;;20.30;59.51;101667.41;2202059;80;52534;-73
2023/04/19 09:51:11;;;;;;;;;;;;;;;20.27;59.58;101664.20;2202061;80;50674;-74
2023/04/19 09:54:13;;;;;;;;;;;;;;;20.23;59.52;101669.08;2212023;79;50275;-75
2023/04/19 09:57:15;;;;;;;;;;;;;;;20.20;59.39;101670.77;2258855;78;51510;-75
2023/04/19 10:00:16;;;;;;;;;;;;;;;20.15;59.42;101656.48;2258879;78;51324;-74
2023/04/19 10:03:19;;;;;;;;;;;;;;;20.14;59.43;101656.17;2258917;78;51493;-75
2023/04/19 10:06:20;;;;;;;;;;;;;;;20.14;59.37;101662.88;2258853;78;51517;-77
2023/04/19 10:09:22;;;;;;;;;;;;;;;20.10;57.70;101658.84;2259046;78;50678;-77
2023/04/19 10:12:28;;;;;;;;;;;;;;;19.99;53.73;101656.00;2213917;78;52438;-77
2023/04/19 10:15:27;;;;;;;;;;;;;;;19.91;50.59;101655.13;2249459;78;22438;-75
2023/04/19 10:18:29;;;;;;;;;;;;;;;19.82;49.27;101643.56;2264058;78;50635;-75
2023/04/19 10:21:31;;;;;;;;;;;;;;;19.96;49.93;101638.88;2192917;80;50733;-75
2023/04/19 10:24:33;;;;;;;;;;;;;;;20.05;50.60;101639.70;2228066;79;51889;-74
2023/04/19 10:27:34;;;;;;;;;;;;;;;20.13;51.10;101638.34;2227487;79;51424;-75
2023/04/19 10:30:36;;;;;;;;;;;;;;;20.25;51.28;101627.27;2201679;80;50757;-73
2023/04/19 10:33:38;;;;;;;;;;;;;;;20.29;51.74;101622.70;2236471;79;51403;-73
2023/04/19 10:36:39;;;;;;;;;;;;;;;20.38;52.17;101620.86;2233225;78;52067;-74
2023/04/19 10:39:41;;;;;;;;;;;;;;;20.45;52.21;101609.76;2240083;79;52433;-74
2023/04/19 10:43:01;;;;;;;;;;;;;;;20.51;52.58;101625.70;2252682;78;50732;-74
2023/04/19 10:46:06;;;;;;;;;;;;;;;20.52;52.75;101621.48;2271047;78;51495;-73
2023/04/19 10:49:08;;;;;;;;;;;;;;;20.52;52.77;101610.72;2230959;79;52548;-75
2023/04/19 10:52:12;;;;;;;;;;;;;;;20.49;53.09;101610.23;2222410;78;50299;-75
2023/04/19 10:55:15;;;;;;;;;;;;;;;20.46;53.36;101614.11;2224545;78;50684;-77
2023/04/19 10:58:17;;;;;;;;;;;;;;;20.43;53.61;101617.15;2208470;79;50683;-74
2023/04/19 11:01:44;;;;;;;;;;;;;;;20.42;53.91;101611.42;2195299;79;52426;-75
2023/04/19 11:04:50;;;;;;;;;;;;;;;20.38;54.00;101614.14;2252078;78;50307;-76
2023/04/19 11:07:52;;;;;;;;;;;;;;;20.38;54.19;101616.83;2251988;78;50379;-74
2023/04/19 11:10:54;;;;;;;;;;;;;;;20.35;54.32;101603.73;2247842;78;50456;-76
2023/04/19 11:13:56;;;;;;;;;;;;;;;20.32;54.43;101601.36;2207774;78;52350;-75
2023/04/19 11:16:58;;;;;;;;;;;;;;;20.29;54.54;101603.05;2249210;78;51542;-75
2023/04/19 11:20:00;;;;;;;;;;;;;;;20.27;54.68;101601.03;2222267;80;51569;-75
2023/04/19 11:23:03;;;;;;;;;;;;;;;20.23;54.88;101596.01;2224955;78;50328;-73
2023/04/19 11:26:04;;;;;;;;;;;;;;;20.20;54.64;101596.36;2210277;78;51197;-74
2023/04/19 11:29:06;;;;;;;;;;;;;;;20.21;54.66;101593.16;2249645;78;50887;-75
2023/04/19 11:32:08;;;;;;;;;;;;;;;20.24;54.81;101582.06;2288866;77;51400;-75
2023/04/19 11:35:09;;;;;;;;;;;;;;;20.31;54.71;101591.63;2252664;78;51410;-74
2023/04/19 11:38:12;;;;;;;;;;;;;;;20.39;54.68;101580.86;2231991;79;51231;-73
2023/04/19 11:41:14;;;;;;;;;;;;;;;20.45;55.27;101586.40;2252728;79;50306;-73
2023/04/19 11:44:18;;;;;;;;;;;;;;;20.46;55.21;101575.13;2288717;77;50388;-74
2023/04/19 11:47:20;;;;;;;;;;;;;;;20.45;55.52;101568.09;2288481;77;50285;-75
2023/04/19 11:50:31;;;;;;;;;;;;;;;20.41;55.69;101573.47;2241349;77;52501;-74
2023/04/19 11:53:32;;;;;;;;;;;;;;;20.38;55.84;101569.78;2253869;78;50061;-75
2023/04/19 11:56:34;;;;;;;;;;;;;;;20.36;55.95;101570.45;2284606;76;51544;-73
2023/04/19 11:59:36;;;;;;;;;;;;;;;20.37;56.04;101568.95;2244175;78;52390;-73
2023/04/19 12:02:38;;;;;;;;;;;;;;;20.32;56.38;101563.25;2232147;79;52654;-73
2023/04/19 12:05:40;;;;;;;;;;;;;;;20.35;56.52;101560.73;2288638;77;50866;-72
2023/04/19 12:08:50;;;;;;;;;;;;;;;20.42;56.45;101550.94;2288539;77;50385;-72
2023/04/19 12:11:51;;;;;;;;;;;;;;;20.43;56.57;101549.44;2219589;77;22362;-72
2023/04/19 12:14:53;;;;;;;;;;;;;;;20.41;56.86;101542.04;2215798;78;52617;-74
2023/04/19 12:17:58;;;;;;;;;;;;;;;20.40;57.03;101543.58;2260462;78;51502;-72
2023/04/19 12:21:00;;;;;;;;;;;;;;;20.37;57.02;101538.04;2288846;76;51485;-71
2023/04/19 12:24:02;;;;;;;;;;;;;;;20.36;57.00;101540.89;2288654;77;49966;-73
2023/04/19 12:27:04;;;;;;;;;;;;;;;20.31;57.10;101545.95;2204985;78;52090;-75
2023/04/19 12:30:07;;;;;;;;;;;;;;;20.25;57.22;101547.48;2223206;79;50684;-74
2023/04/19 12:33:09;;;;;;;;;;;;;;;20.27;57.29;101537.88;2243813;79;51632;-75
2023/04/19 12:36:11;;;;;;;;;;;;;;;20.30;57.33;101534.87;2243440;79;51334;-75
2023/04/19 12:39:12;;;;;;;;;;;;;;;20.40;56.97;101522.07;2206255;79;52071;-74
2023/04/19 12:42:14;;;;;;;;;;;;;;;20.46;56.89;101518.67;2229056;79;51511;-76
2023/04/19 12:45:15;;;;;;;;;;;;;;;20.46;56.77;101528.09;2229459;79;50555;-75
2023/04/19 12:48:17;;;;;;;;;;;;;;;20.43;56.80;101513.14;2231128;79;50347;-75
2023/04/19 12:51:18;;;;;;;;;;;;;;;20.41;56.93;101506.27;2253762;78;51149;-75
2023/04/19 12:54:20;;;;;;;;;;;;;;;20.38;57.01;101499.90;2253745;78;50533;-75
2023/04/19 12:57:22;;;;;;;;;;;;;;;20.34;57.10;101496.70;2258459;78;51523;-76
2023/04/19 13:00:23;;;;;;;;;;;;;;;20.31;57.16;101495.70;2223567;79;50737;-75
2023/04/19 13:03:25;;;;;;;;;;;;;;;20.28;57.20;101492.03;2228090;78;51137;-75
2023/04/19 13:06:27;;;;;;;;;;;;;;;20.28;57.30;101494.72;2252092;78;51595;-74
2023/04/19 13:09:28;;;;;;;;;;;;;;;20.31;57.32;101491.67;2252097;78;51460;-76
2023/04/19 13:12:30;;;;;;;;;;;;;;;20.39;57.06;101480.05;2252094;78;51565;-75
2023/04/19 13:15:32;;;;;;;;;;;;;;;20.43;56.94;101477.36;2252060;78;51697;-76
2023/04/19 13:18:33;;;;;;;;;;;;;;;20.44;56.91;101472.30;2275876;78;50640;-75
2023/04/19 13:21:35;;;;;;;;;;;;;;;20.41;56.88;101472.15;2252119;78;50322;-76
2023/04/19 13:24:36;;;;;;;;;;;;;;;20.38;56.94;101455.55;2275789;78;50250;-75
2023/04/19 13:27:38;;;;;;;;;;;;;;;20.35;57.09;101451.88;2240359;78;51172;-74
2023/04/19 13:30:40;;;;;;;;;;;;;;;20.30;57.21;101450.22;2266649;78;50650;-76
2023/04/19 13:33:41;;;;;;;;;;;;;;;20.27;57.33;101449.19;2275919;78;50632;-76
2023/04/19 13:36:43;;;;;;;;;;;;;;;20.23;57.43;101438.80;2275790;78;51356;-75
2023/04/19 13:39:44;;;;;;;;;;;;;;;20.23;57.56;101441.48;2252189;78;52398;-74
2023/04/19 13:42:46;;;;;;;;;;;;;;;20.30;57.50;101440.81;2275872;78;51958;-75
2023/04/19 13:45:47;;;;;;;;;;;;;;;20.36;57.35;101438.23;2251578;78;50731;-75
2023/04/19 13:48:49;;;;;;;;;;;;;;;20.39;57.24;101434.36;2251840;78;50131;-75
2023/04/19 13:51:51;;;;;;;;;;;;;;;20.35;57.26;101429.86;2227916;78;51185;-75
2023/04/19 13:54:52;;;;;;;;;;;;;;;20.34;57.33;101442.95;2252140;78;50729;-73
2023/04/19 13:57:54;;;;;;;;;;;;;;;20.33;57.31;101436.42;2246853;78;51463;-76
2023/04/19 14:00:56;;;;;;;;;;;;;;;20.29;57.36;101441.80;2252392;78;50580;-74
2023/04/19 14:03:57;;;;;;;;;;;;;;;20.23;57.48;101436.11;2227997;78;51240;-74
2023/04/19 14:06:59;;;;;;;;;;;;;;;20.22;57.59;101445.71;2252328;78;50454;-74
2023/04/19 14:10:00;;;;;;;;;;;;;;;20.21;57.55;101439.47;2252225;78;50653;-74
2023/04/19 14:13:02;;;;;;;;;;;;;;;20.22;57.59;101451.92;2252482;78;51502;-74
2023/04/19 14:16:04;;;;;;;;;;;;;;;20.28;57.54;101444.17;2227704;78;52733;-76
2023/04/19 14:19:05;;;;;;;;;;;;;;;20.36;57.46;101445.47;2252393;78;51456;-76
2023/04/19 14:22:07;;;;;;;;;;;;;;;20.40;57.31;101433.37;2252569;78;51414;-75
2023/04/19 14:25:09;;;;;;;;;;;;;;;20.43;57.33;101435.70;2252511;78;50411;-75
2023/04/19 14:28:11;;;;;;;;;;;;;;;20.42;57.30;101431.31;2235542;78;52237;-75
2023/04/19 14:31:13;;;;;;;;;;;;;;;20.38;57.35;101418.75;2277813;78;50532;-76
2023/04/19 14:34:15;;;;;;;;;;;;;;;20.35;57.45;101419.62;2277913;78;51553;-75
2023/04/19 14:37:17;;;;;;;;;;;;;;;20.30;57.54;101416.62;2258609;78;50419;-75
2023/04/19 14:40:19;;;;;;;;;;;;;;;20.26;57.67;101399.98;2233699;78;52353;-75
2023/04/19 14:43:21;;;;;;;;;;;;;;;20.23;57.71;101397.14;2258527;78;50681;-75
2023/04/19 14:46:22;;;;;;;;;;;;;;;20.29;57.67;101402.83;2242550;78;51431;-75
2023/04/19 14:49:24;;;;;;;;;;;;;;;20.36;57.76;101394.41;2256838;77;51482;-74
2023/04/19 14:52:25;;;;;;;;;;;;;;;20.34;57.76;101388.36;2244763;77;51296;-75
2023/04/19 14:55:27;;;;;;;;;;;;;;;20.35;57.74;101392.73;2226689;78;50740;-74
2023/04/19 14:58:28;;;;;;;;;;;;;;;20.33;57.88;101383.50;2190562;81;50642;-74
2023/04/19 15:01:30;;;;;;;;;;;;;;;20.32;58.00;101391.72;2202382;78;49979;-75
2023/04/19 15:04:35;;;;;;;;;;;;;;;20.28;58.07;101380.50;2224546;78;51186;-75
2023/04/19 15:07:37;;;;;;;;;;;;;;;20.25;58.24;101378.69;2192977;78;50837;-75
2023/04/19 15:10:39;;;;;;;;;;;;;;;20.20;58.42;101389.95;2194112;79;50787;-75
2023/04/19 15:13:40;;;;;;;;;;;;;;;20.18;58.47;101396.84;2222012;78;51455;-74
2023/04/19 15:16:42;;;;;;;;;;;;;;;20.18;58.58;101398.69;2188641;79;52366;-76
2023/04/19 15:19:45;;;;;;;;;;;;;;;20.23;58.59;101405.20;2209742;79;51415;-75
2023/04/19 15:22:47;;;;;;;;;;;;;;;20.30;58.36;101409.90;2269348;77;24471;-76
2023/04/19 15:25:48;;;;;;;;;;;;;;;20.32;58.32;101399.78;2227401;79;50391;-75
2023/04/19 15:28:50;;;;;;;;;;;;;;;20.32;58.36;101413.22;2215673;78;52473;-75
2023/04/19 15:31:52;;;;;;;;;;;;;;;20.29;58.21;101426.50;2224564;80;51445;-74
2023/04/19 15:34:53;;;;;;;;;;;;;;;20.23;58.29;101434.77;2261199;77;51570;-74